M I D A S
Marine Information and Data Acquisition System
Tripno 966 of the Zeeleeuw from 2005-10-04 06:33:46 to 2005-10-04 17:37:35
Back to CruiseResearch ActivitiesStationsMapUnderway DataData graphs

EquipmentUnitsComment
TimeDGPSUTC
LatitudeDGPSDM.mWGS84
LongitudeDGPSDM.mWGS84
HeadingGyrodeg 
SOGDGPSknotsSpeed over ground
COGDGPSdegCourse over ground
DepthEcho soundermeters200 kHz
Missing or incorrect values are displayed as -999
Navigation data collected by the RV Zeeleeuw from 2005-10-04 06:35:46 to 2005-10-04 17:46:46
                                                                                    Next 1000 lines
Time Latitude Longitude Heading SOG COG Depth
2005-10-04 06:35:56 51°13.601 2°56.094 110.3 1.2 283 5.1
2005-10-04 06:36:01 51°13.602 2°56.091 110.3 1.5 287 5.3
2005-10-04 06:36:06 51°13.603 2°56.086 110.5 1.9 288 5.5
2005-10-04 06:36:12 51°13.604 2°56.08 111.4 2.2 289 -999
2005-10-04 06:36:16 51°13.605 2°56.076 112.4 2.4 291 -999
2005-10-04 06:36:20 51°13.606 2°56.072 113.1 2.6 293 -999
2005-10-04 06:36:26 51°13.608 2°56.065 113.4 2.7 293 -999
2005-10-04 06:36:31 51°13.609 2°56.059 113.7 3 292 -999
2005-10-04 06:36:36 51°13.611 2°56.052 113.8 3.2 291 -999
2005-10-04 06:36:40 51°13.613 2°56.046 113.5 3.5 291 -999
2005-10-04 06:36:46 51°13.615 2°56.037 113.2 3.6 291 -999
2005-10-04 06:36:52 51°13.617 2°56.028 113.1 3.6 290 -999
2005-10-04 06:36:56 51°13.618 2°56.022 113.3 3.7 290 -999
2005-10-04 06:37:00 51°13.62 2°56.015 114 3.8 290 -999
2005-10-04 06:37:06 51°13.622 2°56.006 115 3.9 291 -999
2005-10-04 06:37:11 51°13.624 2°55.998 116.1 3.9 291 -999
2005-10-04 06:37:16 51°13.626 2°55.99 117.2 4 292 -999
2005-10-04 06:37:20 51°13.628 2°55.983 118.4 4 293 -999
2005-10-04 06:37:26 51°13.631 2°55.973 119.8 4.1 294 -999
2005-10-04 06:37:31 51°13.633 2°55.965 121.5 4.2 296 -999
2005-10-04 06:37:36 51°13.636 2°55.956 122.8 4.3 297 -999
2005-10-04 06:37:42 51°13.64 2°55.946 124.5 4.4 298 -999
2005-10-04 06:37:46 51°13.642 2°55.939 126.2 4.5 300 -999
2005-10-04 06:37:51 51°13.646 2°55.931 127.8 4.5 302 -999
2005-10-04 06:37:56 51°13.649 2°55.923 129.1 4.5 303 -999
2005-10-04 06:38:01 51°13.653 2°55.914 130.1 4.5 305 -999
2005-10-04 06:38:06 51°13.657 2°55.906 131.3 4.6 306 -999
2005-10-04 06:38:11 51°13.66 2°55.898 132 4.6 307 -999
2005-10-04 06:38:16 51°13.664 2°55.89 132.5 4.6 308 -999
2005-10-04 06:38:22 51°13.669 2°55.881 132.8 4.6 308 -999
2005-10-04 06:38:26 51°13.672 2°55.874 133 4.7 309 -999
2005-10-04 06:38:31 51°13.677 2°55.866 133 4.7 309 -999
2005-10-04 06:38:36 51°13.681 2°55.858 132.9 4.7 309 -999
2005-10-04 06:38:41 51°13.685 2°55.85 132.8 4.8 309 -999
2005-10-04 06:38:46 51°13.689 2°55.842 133.2 4.9 309 -999
2005-10-04 06:38:52 51°13.695 2°55.831 133.5 5 310 -999
2005-10-04 06:38:56 51°13.698 2°55.825 134 5.1 310 -999
2005-10-04 06:39:01 51°13.703 2°55.816 134.5 5.1 311 -999
2005-10-04 06:39:06 51°13.708 2°55.807 135 5.2 311 -999
2005-10-04 06:39:12 51°13.714 2°55.797 135.7 5.3 312 -999
2005-10-04 06:39:16 51°13.718 2°55.79 136.4 5.4 312 -999
2005-10-04 06:39:21 51°13.723 2°55.781 137 5.4 313 -999
2005-10-04 06:39:26 51°13.728 2°55.772 137.7 5.5 313 -999
2005-10-04 06:39:32 51°13.735 2°55.761 138.6 5.6 314 -999
2005-10-04 06:39:36 51°13.739 2°55.754 139.5 5.6 315 -999
2005-10-04 06:39:40 51°13.744 2°55.747 140.6 5.7 316 -999
2005-10-04 06:39:46 51°13.751 2°55.737 141.5 5.7 317 -999
2005-10-04 06:39:51 51°13.757 2°55.729 143.1 5.7 319 -999
2005-10-04 06:39:56 51°13.763 2°55.721 144.6 5.7 321 -999
2005-10-04 06:40:02 51°13.77 2°55.712 146 5.8 321 -999
2005-10-04 06:40:06 51°13.776 2°55.705 147.3 5.8 323 -999
2005-10-04 06:40:12 51°13.784 2°55.696 148.4 5.8 324 -999
2005-10-04 06:40:16 51°13.789 2°55.69 149.2 5.9 325 -999
2005-10-04 06:40:22 51°13.797 2°55.682 150 5.8 325 -999
2005-10-04 06:40:26 51°13.802 2°55.676 151 5.8 326 -999
2005-10-04 06:40:31 51°13.809 2°55.67 152.4 5.7 328 -999
2005-10-04 06:40:36 51°13.815 2°55.664 154 5.6 330 -999
2005-10-04 06:40:40 51°13.821 2°55.659 156 5.5 332 -999
2005-10-04 06:40:46 51°13.829 2°55.652 158 5.5 334 -999
2005-10-04 06:40:51 51°13.836 2°55.647 160.3 5.4 336 -999
2005-10-04 06:40:56 51°13.843 2°55.643 162.6 5.4 337 -999
2005-10-04 06:41:01 51°13.85 2°55.639 165.1 5.4 339 -999
2005-10-04 06:41:06 51°13.857 2°55.636 167.6 5.4 342 -999
2005-10-04 06:41:11 51°13.864 2°55.632 170.2 5.3 345 -999
2005-10-04 06:41:16 51°13.871 2°55.63 172.7 5.3 347 -999
2005-10-04 06:41:21 51°13.878 2°55.628 175.3 5.3 348 -999
2005-10-04 06:41:26 51°13.886 2°55.626 178 5.2 352 -999
2005-10-04 06:41:32 51°13.894 2°55.625 180.7 5.2 353 -999
2005-10-04 06:41:36 51°13.9 2°55.625 183.6 5.1 357 -999
2005-10-04 06:41:40 51°13.905 2°55.625 186.5 4.9 359 -999
2005-10-04 06:41:46 51°13.913 2°55.625 189.2 4.8 1 -999
2005-10-04 06:41:51 51°13.919 2°55.626 192 4.6 4 -999
2005-10-04 06:41:56 51°13.925 2°55.627 194.7 4.4 7 -999
2005-10-04 06:42:01 51°13.931 2°55.629 197.6 4.2 9 -999
2005-10-04 06:42:06 51°13.936 2°55.631 200.3 4 11 -999
2005-10-04 06:42:11 51°13.941 2°55.633 203 3.7 13 -999
2005-10-04 06:42:16 51°13.946 2°55.635 205.4 3.6 14 -999
2005-10-04 06:42:21 51°13.95 2°55.637 207.7 3.4 17 10
2005-10-04 06:42:26 51°13.954 2°55.639 209.4 3.3 18 10.2
2005-10-04 06:42:31 51°13.958 2°55.642 211.1 3 19 10.3
2005-10-04 06:42:36 51°13.961 2°55.643 213.2 2.4 20 10.2
2005-10-04 06:42:40 51°13.962 2°55.644 216.1 1.9 17 10.1
2005-10-04 06:42:46 51°13.964 2°55.644 219.8 1 11 10
2005-10-04 06:42:51 51°13.964 2°55.643 224.6 0.6 345 10
2005-10-04 06:42:56 51°13.964 2°55.642 230.3 0.7 275 10
2005-10-04 06:43:00 51°13.963 2°55.639 236.9 0.9 267 10.1
2005-10-04 06:43:06 51°13.963 2°55.634 244.2 1.8 259 10.2
2005-10-04 06:43:11 51°13.962 2°55.629 251.8 2.3 261 10.2
2005-10-04 06:43:16 51°13.962 2°55.622 259.9 2.9 268 10
2005-10-04 06:43:20 51°13.962 2°55.616 268.3 3.2 275 10.1
2005-10-04 06:43:26 51°13.964 2°55.606 276.7 3.7 283 10.1
2005-10-04 06:43:31 51°13.967 2°55.597 285.1 3.9 286 9.6
2005-10-04 06:43:36 51°13.97 2°55.589 291.9 4.5 298 9.4
2005-10-04 06:43:40 51°13.974 2°55.582 302.6 4.9 307 8.9
2005-10-04 06:43:46 51°13.98 2°55.572 312.1 5.3 315 8.7
2005-10-04 06:43:51 51°13.987 2°55.563 319.4 5.3 315 8.6
2005-10-04 06:43:56 51°13.993 2°55.554 322.2 5.3 315 8.6
2005-10-04 06:44:00 51°13.999 2°55.546 322.7 6.6 319 8.7
2005-10-04 06:44:06 51°14.008 2°55.534 323.5 6.8 320 9.2
2005-10-04 06:44:11 51°14.017 2°55.524 325.1 7.2 322 9.2
2005-10-04 06:44:16 51°14.025 2°55.515 327.1 7.5 324 9.2
2005-10-04 06:44:20 51°14.033 2°55.507 329.6 7.7 326 9.2
2005-10-04 06:44:26 51°14.044 2°55.496 332.2 8 329 9.2
2005-10-04 06:44:31 51°14.054 2°55.486 332.8 8.2 327 9.1
2005-10-04 06:44:36 51°14.064 2°55.477 333 8.4 329 9.2
2005-10-04 06:44:40 51°14.073 2°55.469 333.7 8.7 328 9.1
2005-10-04 06:44:46 51°14.085 2°55.457 334.1 8.9 330 9.1
2005-10-04 06:44:51 51°14.096 2°55.447 334.5 8.9 330 9.1
2005-10-04 06:44:56 51°14.107 2°55.437 334.2 8.9 330 9.1
2005-10-04 06:45:00 51°14.116 2°55.428 334.9 9.2 330 8.9
2005-10-04 06:45:06 51°14.129 2°55.416 335.1 9.3 330 9
2005-10-04 06:45:11 51°14.141 2°55.405 334.5 9.4 329 9
2005-10-04 06:45:16 51°14.152 2°55.394 334.3 9.5 329 9.1
2005-10-04 06:45:21 51°14.163 2°55.382 334 9.6 328 9.1
2005-10-04 06:45:26 51°14.175 2°55.371 333.7 9.8 328 9
2005-10-04 06:45:31 51°14.186 2°55.359 333 9.8 327 9.1
2005-10-04 06:45:36 51°14.197 2°55.346 332 10 326 9.1
2005-10-04 06:45:40 51°14.207 2°55.336 330.3 10 324 9
2005-10-04 06:45:46 51°14.22 2°55.319 328.9 10.1 323 9
2005-10-04 06:45:51 51°14.231 2°55.305 327.6 10.1 321 9
2005-10-04 06:45:56 51°14.241 2°55.29 325.9 10.2 319 9
2005-10-04 06:46:00 51°14.249 2°55.277 324.1 10.2 318 9
2005-10-04 06:46:06 51°14.261 2°55.258 322 10.3 315 9.1
2005-10-04 06:46:11 51°14.271 2°55.24 319.5 10.4 313 9
2005-10-04 06:46:16 51°14.28 2°55.223 317.9 10.5 311 9
2005-10-04 06:46:20 51°14.287 2°55.208 315.6 10.6 309 9.1
2005-10-04 06:46:26 51°14.299 2°55.185 314.2 10.7 309 9.3
2005-10-04 06:46:31 51°14.308 2°55.167 313 10.8 308 9.1
2005-10-04 06:46:36 51°14.317 2°55.147 312.6 10.9 308 9.5
2005-10-04 06:46:40 51°14.325 2°55.132 312.2 11 307 9.1
2005-10-04 06:46:46 51°14.335 2°55.108 311.9 11 307 9.1
2005-10-04 06:46:51 51°14.344 2°55.089 311.4 11 307 9.1
2005-10-04 06:46:56 51°14.353 2°55.069 310.9 11 306 9.1
2005-10-04 06:47:01 51°14.362 2°55.049 310.7 11.1 306 9.2
2005-10-04 06:47:06 51°14.372 2°55.028 310.7 11.5 306 9.1
2005-10-04 06:47:11 51°14.381 2°55.006 310.9 11.6 305 8.8
2005-10-04 06:47:16 51°14.391 2°54.984 311.2 12 305 8.8
2005-10-04 06:47:20 51°14.398 2°54.967 310.6 12.2 304 8.7
2005-10-04 06:47:26 51°14.41 2°54.939 309.9 12.4 303 8.8
2005-10-04 06:47:31 51°14.419 2°54.916 309.1 12.5 304 8.9
2005-10-04 06:47:36 51°14.43 2°54.893 309.1 12.7 305 8.9
2005-10-04 06:47:40 51°14.438 2°54.875 310.8 12.7 306 8.9
2005-10-04 06:47:46 51°14.452 2°54.848 313.6 12.9 309 9.3
2005-10-04 06:47:51 51°14.463 2°54.826 315.5 12.9 309 9
2005-10-04 06:47:56 51°14.475 2°54.804 317 13 311 8.9
2005-10-04 06:48:00 51°14.484 2°54.786 318.2 13.1 309 8.9
2005-10-04 06:48:06 51°14.498 2°54.759 318.9 13.1 310 8.9
2005-10-04 06:48:11 51°14.51 2°54.738 320.2 13.2 311 8.9
2005-10-04 06:48:16 51°14.523 2°54.716 321.5 13.1 313 8.7
2005-10-04 06:48:20 51°14.532 2°54.699 323.7 13.1 313 8.8
2005-10-04 06:48:26 51°14.548 2°54.675 325.1 13.1 315 8.7
2005-10-04 06:48:31 51°14.56 2°54.654 325 13.2 313 8.6
2005-10-04 06:48:36 51°14.573 2°54.634 325.5 13.1 315 8.5
2005-10-04 06:48:41 51°14.586 2°54.613 326.2 13.1 314 8.5
2005-10-04 06:48:46 51°14.599 2°54.593 325.9 13.1 315 8.5
2005-10-04 06:48:51 51°14.612 2°54.572 326 13.1 315 8.4
2005-10-04 06:48:56 51°14.625 2°54.554 327.1 13 317 8.4
2005-10-04 06:49:00 51°14.635 2°54.538 329 13 318 8.3
2005-10-04 06:49:06 51°14.652 2°54.516 330.6 13 318 8.3
2005-10-04 06:49:11 51°14.666 2°54.498 332.5 12.9 321 8.3
2005-10-04 06:49:16 51°14.68 2°54.481 333.8 12.8 322 8.2
2005-10-04 06:49:21 51°14.694 2°54.465 335.3 12.8 322 8.1
2005-10-04 06:49:26 51°14.708 2°54.448 336.5 12.8 323 8.2
2005-10-04 06:49:31 51°14.723 2°54.432 336.9 12.7 325 8.1
2005-10-04 06:49:36 51°14.737 2°54.415 337.1 12.7 324 8.1
2005-10-04 06:49:40 51°14.749 2°54.403 336.9 12.7 325 8.1
2005-10-04 06:49:46 51°14.766 2°54.384 336.7 12.6 326 8
2005-10-04 06:49:51 51°14.781 2°54.369 336.8 12.6 327 7.9
2005-10-04 06:49:56 51°14.795 2°54.353 337.1 12.6 325 7.9
2005-10-04 06:50:01 51°14.81 2°54.337 336.3 12.7 325 7.9
2005-10-04 06:50:06 51°14.824 2°54.321 335.4 12.6 325 7.8
2005-10-04 06:50:11 51°14.839 2°54.306 335.7 12.5 327 7.8
2005-10-04 06:50:16 51°14.853 2°54.291 336.1 12.5 327 7.7
2005-10-04 06:50:20 51°14.865 2°54.279 336.7 12.6 326 7.6
2005-10-04 06:50:26 51°14.883 2°54.261 336.5 12.6 327 7.6
2005-10-04 06:50:31 51°14.897 2°54.246 335.9 12.6 326 7.5
2005-10-04 06:50:36 51°14.912 2°54.231 335.9 12.5 327 7.4
2005-10-04 06:50:41 51°14.926 2°54.216 336.5 12.4 327 7.3
2005-10-04 06:50:46 51°14.94 2°54.201 336.6 12.4 326 7.2
2005-10-04 06:50:51 51°14.954 2°54.186 336.2 12.4 326 7.2
2005-10-04 06:50:56 51°14.968 2°54.17 335.8 12.3 324 7.2
2005-10-04 06:51:00 51°14.98 2°54.158 335.9 12.2 327 -999
2005-10-04 06:51:06 51°14.996 2°54.139 336 12.3 324 7.1
2005-10-04 06:51:11 51°15.01 2°54.123 335.5 12.2 326 7.1
2005-10-04 06:51:16 51°15.024 2°54.109 336.4 12.2 326 7
2005-10-04 06:51:21 51°15.038 2°54.093 337.7 12.2 327 7.1
2005-10-04 06:51:26 51°15.052 2°54.078 337.7 12.3 325 7.1
2005-10-04 06:51:31 51°15.066 2°54.061 336.9 12.3 323 7.1
2005-10-04 06:51:36 51°15.08 2°54.045 336.2 12.4 323 7.2
2005-10-04 06:51:40 51°15.091 2°54.032 335.3 12.4 323 7.2
2005-10-04 06:51:46 51°15.108 2°54.015 336.6 12.4 323 7.3
2005-10-04 06:51:51 51°15.123 2°54.001 338.4 12.3 327 7.3
2005-10-04 06:51:56 51°15.137 2°53.987 340.5 12.3 329 7.4
2005-10-04 06:52:00 51°15.149 2°53.976 341.8 12.3 330 7.4
2005-10-04 06:52:06 51°15.167 2°53.959 342.5 12.3 329 5.5
2005-10-04 06:52:11 51°15.181 2°53.945 342.2 12.4 329 7.6
2005-10-04 06:52:16 51°15.196 2°53.931 341.5 12.4 327 7.6
2005-10-04 06:52:20 51°15.207 2°53.918 341.2 12.4 329 7.7
2005-10-04 06:52:26 51°15.225 2°53.901 340.1 12.4 329 7.8
2005-10-04 06:52:31 51°15.24 2°53.886 340.9 12.6 328 7.9
2005-10-04 06:52:36 51°15.255 2°53.871 341.2 12.5 329 7.9
2005-10-04 06:52:40 51°15.267 2°53.859 341.3 12.7 328 8
2005-10-04 06:52:46 51°15.285 2°53.842 341.1 12.7 328 8
2005-10-04 06:52:51 51°15.3 2°53.826 341.1 12.8 328 8.1
2005-10-04 06:52:56 51°15.315 2°53.812 340.7 12.8 329 8.2
2005-10-04 06:53:00 51°15.327 2°53.801 341.5 12.7 330 8.3
2005-10-04 06:53:06 51°15.345 2°53.784 342.8 12.8 330 8.3
2005-10-04 06:53:11 51°15.361 2°53.769 342 12.8 329 8.4
2005-10-04 06:53:16 51°15.376 2°53.754 340.9 12.8 328 8.4
2005-10-04 06:53:21 51°15.391 2°53.74 340.8 12.8 329 8.6
2005-10-04 06:53:26 51°15.406 2°53.726 341.6 12.8 329 8.6
2005-10-04 06:53:31 51°15.421 2°53.711 342.6 12.7 330 8.6
2005-10-04 06:53:36 51°15.436 2°53.696 341.9 12.8 328 8.8
2005-10-04 06:53:40 51°15.448 2°53.684 341.1 12.8 328 8.8
2005-10-04 06:53:46 51°15.466 2°53.667 340.9 12.8 328 8.8
2005-10-04 06:53:51 51°15.482 2°53.652 340.9 12.8 328 8.9
2005-10-04 06:53:56 51°15.497 2°53.637 340.8 12.8 329 8.9
2005-10-04 06:54:01 51°15.512 2°53.622 341.6 12.8 330 8.9
2005-10-04 06:54:06 51°15.527 2°53.608 341.8 12.8 328 9
2005-10-04 06:54:11 51°15.542 2°53.592 341.4 12.8 328 9
2005-10-04 06:54:16 51°15.557 2°53.577 340.7 12.9 327 9.1
2005-10-04 06:54:21 51°15.572 2°53.562 340.4 12.8 328 9.2
2005-10-04 06:54:26 51°15.587 2°53.547 340.5 12.8 328 9.2
2005-10-04 06:54:31 51°15.602 2°53.532 340.7 12.8 328 9.3
2005-10-04 06:54:36 51°15.617 2°53.518 341.5 12.7 329 9.3
2005-10-04 06:54:40 51°15.629 2°53.505 340.7 12.8 328 9.4
2005-10-04 06:54:46 51°15.647 2°53.487 340 12.8 328 9.3
2005-10-04 06:54:51 51°15.662 2°53.472 340.7 12.8 328 9.4
2005-10-04 06:54:56 51°15.677 2°53.458 341.1 12.7 329 9.5
2005-10-04 06:55:01 51°15.692 2°53.442 341.4 12.8 328 9.5
2005-10-04 06:55:06 51°15.707 2°53.427 340.5 12.7 328 9.5
2005-10-04 06:55:11 51°15.722 2°53.412 340.6 12.7 328 9.6
2005-10-04 06:55:16 51°15.737 2°53.399 341.1 12.6 329 9.5
2005-10-04 06:55:21 51°15.753 2°53.385 342.5 12.5 331 9.7
2005-10-04 06:55:26 51°15.768 2°53.37 342.4 12.7 328 9.7
2005-10-04 06:55:31 51°15.782 2°53.355 341 12.7 328 9.9
2005-10-04 06:55:36 51°15.797 2°53.339 339.6 12.7 326 9.9
2005-10-04 06:55:41 51°15.812 2°53.324 338.8 12.7 327 10
2005-10-04 06:55:46 51°15.827 2°53.31 339.4 12.7 329 10.1
2005-10-04 06:55:51 51°15.843 2°53.297 341.4 12.6 331 10
2005-10-04 06:55:56 51°15.858 2°53.283 342.4 12.5 331 10
2005-10-04 06:56:00 51°15.87 2°53.272 342.8 12.5 331 10.1
2005-10-04 06:56:06 51°15.888 2°53.255 341.5 12.7 329 10.2
2005-10-04 06:56:11 51°15.903 2°53.24 340.8 12.7 329 10.2
2005-10-04 06:56:16 51°15.918 2°53.225 340.4 12.7 328 10.3
2005-10-04 06:56:21 51°15.933 2°53.21 340 12.8 329 10.2
2005-10-04 06:56:26 51°15.948 2°53.196 339.9 12.8 328 10.3
2005-10-04 06:56:31 51°15.963 2°53.181 340.1 12.7 329 10.4
2005-10-04 06:56:36 51°15.979 2°53.168 340.6 12.7 330 10.4
2005-10-04 06:56:40 51°15.991 2°53.158 343.1 12.6 333 10.4
2005-10-04 06:56:46 51°16.01 2°53.144 345.3 12.4 335 10.5
2005-10-04 06:56:51 51°16.026 2°53.132 346.3 12.5 334 10.5
2005-10-04 06:56:56 51°16.041 2°53.121 346.2 12.4 336 10.5
2005-10-04 06:57:00 51°16.054 2°53.11 345.8 12.5 335 10.5
2005-10-04 06:57:06 51°16.072 2°53.095 345.1 12.5 334 10.6
2005-10-04 06:57:11 51°16.088 2°53.082 345.2 12.6 333 10.6
2005-10-04 06:57:16 51°16.104 2°53.071 345.3 12.5 334 10.5
2005-10-04 06:57:20 51°16.116 2°53.06 345.8 12.5 333 10.6
2005-10-04 06:57:26 51°16.135 2°53.046 346.5 12.5 335 10.6
2005-10-04 06:57:31 51°16.15 2°53.034 346.4 12.5 333 10.7
2005-10-04 06:57:36 51°16.166 2°53.022 346.7 12.5 334 10.6
2005-10-04 06:57:40 51°16.178 2°53.011 346.1 12.5 332 10.7
2005-10-04 06:57:46 51°16.196 2°52.996 345 12.6 332 10.7
2005-10-04 06:57:51 51°16.212 2°52.983 344.7 12.6 331 10.7
2005-10-04 06:57:56 51°16.227 2°52.97 344.7 12.6 331 10.7
2005-10-04 06:58:01 51°16.243 2°52.958 345.3 12.5 333 10.8
2005-10-04 06:58:06 51°16.259 2°52.947 346.2 12.5 333 10.8
2005-10-04 06:58:11 51°16.274 2°52.936 347.9 12.4 336 10.8
2005-10-04 06:58:16 51°16.29 2°52.926 349.7 12.5 338 10.8
2005-10-04 06:58:20 51°16.303 2°52.919 351.2 12.3 340 10.8
2005-10-04 06:58:26 51°16.323 2°52.909 353.2 12.2 343 10.8
2005-10-04 06:58:31 51°16.339 2°52.902 355.4 12.1 344 10.8
2005-10-04 06:58:36 51°16.355 2°52.895 356.6 12.1 344 10.7
2005-10-04 06:58:41 51°16.371 2°52.888 356.1 12.2 343 10.8
2005-10-04 06:58:46 51°16.388 2°52.881 356 12.1 345 10.8
2005-10-04 06:58:51 51°16.404 2°52.874 355.3 12.2 344 10.8
2005-10-04 06:58:56 51°16.42 2°52.867 355.9 12.2 346 10.7
2005-10-04 06:59:00 51°16.433 2°52.861 356.3 12.3 345 10.8
2005-10-04 06:59:06 51°16.453 2°52.853 355.9 12.2 345 10.6
2005-10-04 06:59:11 51°16.469 2°52.846 355.6 12.2 345 10.6
2005-10-04 06:59:16 51°16.486 2°52.839 355.8 12.2 347 10.4
2005-10-04 06:59:20 51°16.499 2°52.834 356 12.2 346 10.4
2005-10-04 06:59:26 51°16.519 2°52.827 355.9 12.1 347 10.4
2005-10-04 06:59:31 51°16.535 2°52.819 355.5 12.1 347 10.3
2005-10-04 06:59:36 51°16.552 2°52.814 355.1 12.2 347 10.3
2005-10-04 06:59:40 51°16.565 2°52.808 355.4 12.2 346 10.2
2005-10-04 06:59:46 51°16.584 2°52.802 355.9 12.2 348 10.1
2005-10-04 06:59:51 51°16.601 2°52.795 356.5 12.2 347 10
2005-10-04 06:59:56 51°16.617 2°52.79 356.6 12.2 348 10
2005-10-04 07:00:00 51°16.631 2°52.785 356.4 12.2 347 10
2005-10-04 07:00:06 51°16.65 2°52.777 355.6 12.2 346 9.8
2005-10-04 07:00:11 51°16.667 2°52.772 355.3 12.2 348 9.7
2005-10-04 07:00:16 51°16.683 2°52.765 355.9 12.2 346 9.5
2005-10-04 07:00:20 51°16.697 2°52.761 355.6 12.1 347 9.4
2005-10-04 07:00:26 51°16.716 2°52.753 355.7 12.1 348 9.3
2005-10-04 07:00:31 51°16.733 2°52.748 354.9 12.1 347 9
2005-10-04 07:00:36 51°16.749 2°52.741 355.1 12.1 348 8.8
2005-10-04 07:00:40 51°16.762 2°52.737 355.3 12 347 8.5
2005-10-04 07:00:46 51°16.781 2°52.73 356 11.9 348 8.4
2005-10-04 07:00:51 51°16.797 2°52.726 357 11.9 348 8.2
2005-10-04 07:00:56 51°16.814 2°52.72 357.6 12 348 8.3
2005-10-04 07:01:00 51°16.826 2°52.716 356.2 11.9 347 8.2
2005-10-04 07:01:06 51°16.846 2°52.708 356 12 347 8.1
2005-10-04 07:01:11 51°16.862 2°52.702 354.3 11.9 347 7.9
2005-10-04 07:01:16 51°16.878 2°52.695 354.1 11.9 346 7.9
2005-10-04 07:01:20 51°16.89 2°52.691 354.8 11.8 347 8
2005-10-04 07:01:26 51°16.91 2°52.685 355.6 11.8 348 8
2005-10-04 07:01:31 51°16.926 2°52.68 357.1 11.9 350 8.2
2005-10-04 07:01:36 51°16.942 2°52.674 357.5 11.9 347 8.2
2005-10-04 07:01:40 51°16.955 2°52.669 356.5 12 347 8.4
2005-10-04 07:01:46 51°16.974 2°52.661 355.5 12 346 8.4
2005-10-04 07:01:51 51°16.991 2°52.654 354.4 12.1 346 8.7
2005-10-04 07:01:56 51°17.007 2°52.648 354.5 12.1 346 8.8
2005-10-04 07:02:01 51°17.023 2°52.643 355.4 12.1 348 8.8
2005-10-04 07:02:06 51°17.04 2°52.637 356.3 12.1 348 8.7
2005-10-04 07:02:11 51°17.056 2°52.632 357.3 12 348 8.7
2005-10-04 07:02:16 51°17.073 2°52.627 357.4 12 349 8.4
2005-10-04 07:02:20 51°17.085 2°52.623 357.9 11.9 350 8.3
2005-10-04 07:02:26 51°17.105 2°52.619 358.6 11.8 352 8.1
2005-10-04 07:02:31 51°17.121 2°52.616 0.1 11.8 352 8.2
2005-10-04 07:02:36 51°17.137 2°52.613 1.6 11.8 354 8.1
2005-10-04 07:02:40 51°17.15 2°52.61 1.8 11.8 352 8.1
2005-10-04 07:02:46 51°17.17 2°52.604 0.2 11.9 350 8.3
2005-10-04 07:02:51 51°17.186 2°52.598 358.7 11.9 348 8.4
2005-10-04 07:02:56 51°17.202 2°52.591 357.3 11.9 346 8.4
2005-10-04 07:03:00 51°17.214 2°52.584 353.8 12 343 8.4
2005-10-04 07:03:06 51°17.234 2°52.577 353.1 11.9 345 8.4
2005-10-04 07:03:11 51°17.25 2°52.571 354.7 12 346 8.4
2005-10-04 07:03:16 51°17.266 2°52.565 355.7 12 347 8.4
2005-10-04 07:03:21 51°17.282 2°52.561 356.5 11.9 347 8.6
2005-10-04 07:03:26 51°17.299 2°52.555 357.6 11.9 347 8.6
2005-10-04 07:03:31 51°17.315 2°52.55 357.4 12 349 8.7
2005-10-04 07:03:36 51°17.331 2°52.544 357.8 12 348 8.7
2005-10-04 07:03:40 51°17.344 2°52.54 357.9 12 348 8.8
2005-10-04 07:03:46 51°17.364 2°52.532 356.7 12.1 346 8.8
2005-10-04 07:03:51 51°17.38 2°52.525 355.6 12.1 346 8.9
2005-10-04 07:03:56 51°17.396 2°52.519 355.1 12.1 346 8.8
2005-10-04 07:04:00 51°17.409 2°52.515 355.6 12 348 8.9
2005-10-04 07:04:06 51°17.429 2°52.51 357.5 12 351 8.9
2005-10-04 07:04:11 51°17.445 2°52.508 0.1 11.9 354 8.8
2005-10-04 07:04:16 51°17.462 2°52.507 2.9 11.9 356 8.9
2005-10-04 07:04:20 51°17.475 2°52.506 5.2 11.9 358 8.9
2005-10-04 07:04:26 51°17.495 2°52.507 7.2 11.9 359 9
2005-10-04 07:04:31 51°17.511 2°52.508 8.7 11.8 2 8.9
2005-10-04 07:04:36 51°17.527 2°52.509 10.2 11.8 2 9.1
2005-10-04 07:04:40 51°17.54 2°52.511 11.5 11.8 4 9
2005-10-04 07:04:46 51°17.56 2°52.512 11.8 11.8 3 9
2005-10-04 07:04:51 51°17.576 2°52.513 11.7 11.8 3 9
2005-10-04 07:04:56 51°17.592 2°52.514 11.4 11.7 2 9
2005-10-04 07:05:00 51°17.605 2°52.515 10.8 11.8 1 9
2005-10-04 07:05:06 51°17.625 2°52.516 10.8 11.7 3 8.9
2005-10-04 07:05:11 51°17.641 2°52.518 11.4 11.7 4 9
2005-10-04 07:05:16 51°17.657 2°52.521 13 11.7 5 9
2005-10-04 07:05:20 51°17.67 2°52.522 13.9 11.7 5 9.1
2005-10-04 07:05:26 51°17.689 2°52.524 13.3 11.7 3 9.1
2005-10-04 07:05:31 51°17.705 2°52.524 12.4 11.6 2 9
2005-10-04 07:05:36 51°17.721 2°52.526 11.6 11.7 1 9.1
2005-10-04 07:05:40 51°17.734 2°52.526 11.4 11.7 2 8.8
2005-10-04 07:05:46 51°17.754 2°52.527 10.8 11.7 2 8.9
2005-10-04 07:05:51 51°17.77 2°52.528 10.9 11.6 2 9
2005-10-04 07:05:56 51°17.786 2°52.529 11.3 11.6 3 9
2005-10-04 07:06:00 51°17.798 2°52.53 11.8 11.6 2 8.8
2005-10-04 07:06:06 51°17.818 2°52.531 11.3 11.6 2 9.1
2005-10-04 07:06:11 51°17.834 2°52.532 11 11.6 3 8.9
2005-10-04 07:06:16 51°17.85 2°52.533 11 11.6 2 9.1
2005-10-04 07:06:20 51°17.863 2°52.536 12.1 11.6 5 9.2
2005-10-04 07:06:26 51°17.882 2°52.539 14.3 11.6 7 9.1
2005-10-04 07:06:31 51°17.897 2°52.544 15.5 11.6 7 9.1
2005-10-04 07:06:36 51°17.913 2°52.549 17.8 11.4 11 9.2
2005-10-04 07:06:40 51°17.925 2°52.554 19.7 11.4 12 9.2
2005-10-04 07:06:46 51°17.943 2°52.56 21.2 11.4 12 9.2
2005-10-04 07:06:51 51°17.959 2°52.568 22.3 11.4 16 9.2
2005-10-04 07:06:56 51°17.974 2°52.573 22.9 11.4 14 9.1
2005-10-04 07:07:00 51°17.986 2°52.578 22.2 11.5 13 9.3
2005-10-04 07:07:06 51°18.005 2°52.585 22.1 11.4 13 9.3
2005-10-04 07:07:11 51°18.02 2°52.59 21.5 11.4 12 9.3
2005-10-04 07:07:16 51°18.036 2°52.595 20.7 11.4 12 9.4
2005-10-04 07:07:20 51°18.048 2°52.599 20.2 11.5 11 9.4
2005-10-04 07:07:26 51°18.067 2°52.605 20 11.5 11 9.3
2005-10-04 07:07:31 51°18.083 2°52.611 20 11.5 11 9.4
2005-10-04 07:07:36 51°18.098 2°52.617 20.9 11.4 13 9.3
2005-10-04 07:07:40 51°18.111 2°52.622 22 11.4 14 9.4
2005-10-04 07:07:46 51°18.129 2°52.629 22.2 11.5 14 9.5
2005-10-04 07:07:51 51°18.144 2°52.635 22.7 11.5 14 9.5
2005-10-04 07:07:56 51°18.16 2°52.64 22.1 11.6 11 9.5
2005-10-04 07:08:00 51°18.173 2°52.644 20.6 11.6 12 9.6
2005-10-04 07:08:06 51°18.191 2°52.65 20.1 11.5 11 9.5
2005-10-04 07:08:11 51°18.207 2°52.655 20.2 11.5 11 9.7
2005-10-04 07:08:16 51°18.223 2°52.661 20.4 11.5 12 9.5
2005-10-04 07:08:20 51°18.235 2°52.666 20.8 11.6 13 9.8
2005-10-04 07:08:26 51°18.254 2°52.673 21.7 11.6 14 9.6
2005-10-04 07:08:31 51°18.27 2°52.679 22.1 11.6 14 9.7
2005-10-04 07:08:36 51°18.285 2°52.685 22.1 11.6 13 9.7
2005-10-04 07:08:40 51°18.298 2°52.689 21.7 11.6 12 9.8
2005-10-04 07:08:46 51°18.317 2°52.695 20.9 11.6 12 9.8
2005-10-04 07:08:51 51°18.332 2°52.699 20.7 11.6 10 9.7
2005-10-04 07:08:56 51°18.348 2°52.704 20.1 11.6 10 9.7
2005-10-04 07:09:00 51°18.361 2°52.707 19 11.6 8 9.8
2005-10-04 07:09:06 51°18.38 2°52.711 18.4 11.5 9 9.8
2005-10-04 07:09:11 51°18.396 2°52.714 17.6 11.6 7 10
2005-10-04 07:09:16 51°18.412 2°52.716 16.8 11.6 7 9.8
2005-10-04 07:09:21 51°18.428 2°52.719 15.9 11.7 6 9.9
2005-10-04 07:09:26 51°18.444 2°52.722 15.5 11.7 6 9.9
2005-10-04 07:09:31 51°18.461 2°52.724 15.7 11.7 5 9.9
2005-10-04 07:09:36 51°18.477 2°52.726 15.7 11.7 6 10.1
2005-10-04 07:09:41 51°18.493 2°52.728 15.4 11.6 5 10
2005-10-04 07:09:46 51°18.509 2°52.731 15.3 11.6 5 10
2005-10-04 07:09:51 51°18.525 2°52.734 15.4 11.6 6 10.1
2005-10-04 07:09:56 51°18.541 2°52.737 16.1 11.6 7 10.1
2005-10-04 07:10:01 51°18.557 2°52.74 16.8 11.6 7 10.1
2005-10-04 07:10:06 51°18.573 2°52.741 17.1 11.5 6 10.2
2005-10-04 07:10:11 51°18.589 2°52.743 16.6 11.6 4 10.1
2005-10-04 07:10:16 51°18.605 2°52.744 15.3 11.7 2 10.1
2005-10-04 07:10:21 51°18.621 2°52.745 14.5 11.7 2 10.1
2005-10-04 07:10:26 51°18.637 2°52.747 14.5 11.6 3 10.2
2005-10-04 07:10:31 51°18.653 2°52.749 15.1 11.6 4 10.2
2005-10-04 07:10:36 51°18.669 2°52.751 16.3 11.4 5 10.2
2005-10-04 07:10:40 51°18.681 2°52.754 17.4 11.5 6 10.3
2005-10-04 07:10:46 51°18.7 2°52.757 18 11.6 5 10.4
2005-10-04 07:10:51 51°18.716 2°52.759 17.5 11.6 5 10.3
2005-10-04 07:10:56 51°18.732 2°52.761 17.2 11.6 5 10.4
2005-10-04 07:11:00 51°18.745 2°52.763 16.6 11.5 4 10.5
2005-10-04 07:11:06 51°18.764 2°52.764 15.9 11.6 4 10.5
2005-10-04 07:11:11 51°18.78 2°52.766 15.2 11.6 4 10.4
2005-10-04 07:11:16 51°18.796 2°52.767 15.5 11.6 4 10.4
2005-10-04 07:11:20 51°18.809 2°52.769 16.1 11.5 5 10.6
2005-10-04 07:11:26 51°18.828 2°52.77 15.5 11.6 2 10.7
2005-10-04 07:11:31 51°18.844 2°52.772 15.2 11.6 2 10.6
2005-10-04 07:11:36 51°18.86 2°52.774 15.2 11.5 3 10.7
2005-10-04 07:11:40 51°18.873 2°52.775 15.9 11.5 4 10.8
2005-10-04 07:11:46 51°18.891 2°52.777 16.4 11.5 4 10.8
2005-10-04 07:11:51 51°18.907 2°52.779 16 11.5 4 10.9
2005-10-04 07:11:56 51°18.923 2°52.781 16.2 11.5 5 10.9
2005-10-04 07:12:00 51°18.936 2°52.783 16.2 11.5 4 11
2005-10-04 07:12:06 51°18.955 2°52.785 16 11.5 5 11.1
2005-10-04 07:12:11 51°18.971 2°52.788 16.8 11.5 5 11
2005-10-04 07:12:16 51°18.987 2°52.79 17.4 11.5 6 11.1
2005-10-04 07:12:21 51°19.003 2°52.792 16.8 11.5 4 11.2
2005-10-04 07:12:26 51°19.019 2°52.794 16.6 11.5 4 11.2
2005-10-04 07:12:31 51°19.035 2°52.795 16.7 11.5 3 11.3
2005-10-04 07:12:36 51°19.05 2°52.797 15.6 11.5 3 11.4
2005-10-04 07:12:41 51°19.066 2°52.798 15.3 11.5 4 11.5
2005-10-04 07:12:46 51°19.083 2°52.8 15.7 11.5 4 11.5
2005-10-04 07:12:51 51°19.098 2°52.803 16.4 11.5 4 11.6
2005-10-04 07:12:56 51°19.114 2°52.804 17.1 11.5 4 11.6
2005-10-04 07:13:00 51°19.127 2°52.806 16.6 11.5 4 11.8
2005-10-04 07:13:06 51°19.146 2°52.807 16.2 11.6 4 11.9
2005-10-04 07:13:11 51°19.162 2°52.808 15.2 11.5 2 11.8
2005-10-04 07:13:16 51°19.178 2°52.809 14.8 11.7 3 11.9
2005-10-04 07:13:20 51°19.191 2°52.811 14.8 11.6 3 12
2005-10-04 07:13:26 51°19.21 2°52.813 15 11.6 4 12.1
2005-10-04 07:13:31 51°19.226 2°52.815 15.8 11.5 4 12.2
2005-10-04 07:13:36 51°19.242 2°52.817 16.4 11.5 5 12.2
2005-10-04 07:13:41 51°19.258 2°52.819 16.9 11.6 5 12.3
2005-10-04 07:13:46 51°19.274 2°52.82 16.6 11.6 5 12.3
2005-10-04 07:13:51 51°19.29 2°52.822 15.6 11.6 3 12.4
2005-10-04 07:13:56 51°19.306 2°52.823 15.8 11.6 4 12.5
2005-10-04 07:14:00 51°19.319 2°52.825 16 11.5 4 12.5
2005-10-04 07:14:06 51°19.338 2°52.827 16.4 11.5 4 12.8
2005-10-04 07:14:11 51°19.354 2°52.828 15.9 11.5 4 12.7
2005-10-04 07:14:16 51°19.37 2°52.828 15.7 11.5 3 12.8
2005-10-04 07:14:20 51°19.383 2°52.828 14.3 11.6 359 12.9
2005-10-04 07:14:26 51°19.402 2°52.827 12.7 11.7 359 13
2005-10-04 07:14:31 51°19.418 2°52.825 10.8 11.7 359 13
2005-10-04 07:14:36 51°19.434 2°52.824 10.2 11.6 358 13.1
2005-10-04 07:14:40 51°19.447 2°52.824 10.5 11.7 359 13.1
2005-10-04 07:14:46 51°19.467 2°52.823 11.3 11.7 -999 13.2
2005-10-04 07:14:51 51°19.483 2°52.823 11.9 11.7 359 13.3
2005-10-04 07:14:56 51°19.499 2°52.823 12.4 11.7 -999 13.4
2005-10-04 07:15:00 51°19.512 2°52.823 12.3 11.7 -999 13.4
2005-10-04 07:15:06 51°19.532 2°52.823 12.2 11.8 359 13.5
2005-10-04 07:15:11 51°19.548 2°52.823 11.9 11.7 -999 13.6
2005-10-04 07:15:16 51°19.564 2°52.822 11.7 11.7 359 13.6
2005-10-04 07:15:20 51°19.577 2°52.821 10.7 11.8 359 13.7
2005-10-04 07:15:26 51°19.597 2°52.821 10.4 11.7 359 13.7
2005-10-04 07:15:31 51°19.613 2°52.82 10.1 11.7 359 13.8
2005-10-04 07:15:36 51°19.629 2°52.82 10.2 11.7 359 14
2005-10-04 07:15:40 51°19.642 2°52.819 10.8 11.7 359 14
2005-10-04 07:15:46 51°19.662 2°52.818 10.8 11.8 358 14
2005-10-04 07:15:51 51°19.678 2°52.817 10.5 11.8 358 14.1
2005-10-04 07:15:56 51°19.695 2°52.816 10.4 11.8 358 14.1
2005-10-04 07:16:00 51°19.708 2°52.815 10.2 11.8 358 14.2
2005-10-04 07:16:06 51°19.727 2°52.814 10.5 11.8 358 14.2
2005-10-04 07:16:11 51°19.743 2°52.813 10.7 11.8 358 14.3
2005-10-04 07:16:16 51°19.76 2°52.812 10.6 11.8 358 14.4
2005-10-04 07:16:20 51°19.773 2°52.811 10.4 11.8 358 14.5
2005-10-04 07:16:26 51°19.792 2°52.809 10.5 11.8 357 14.5
2005-10-04 07:16:31 51°19.809 2°52.807 10.3 11.8 357 14.6
2005-10-04 07:16:36 51°19.825 2°52.806 9.6 11.8 357 14.6
2005-10-04 07:16:40 51°19.838 2°52.805 9.7 11.8 356 14.8
2005-10-04 07:16:46 51°19.857 2°52.802 9.4 11.8 356 14.8
2005-10-04 07:16:51 51°19.874 2°52.801 9.1 11.8 356 14.7
2005-10-04 07:16:56 51°19.89 2°52.8 9.4 11.8 357 14.8
2005-10-04 07:17:00 51°19.903 2°52.8 10.2 11.8 358 14.9
2005-10-04 07:17:06 51°19.923 2°52.8 11.3 11.8 -999 14.9
2005-10-04 07:17:11 51°19.939 2°52.8 12.8 11.7 1 15
2005-10-04 07:17:16 51°19.955 2°52.8 13.1 11.7 -999 14.9
2005-10-04 07:17:20 51°19.968 2°52.8 12.3 11.7 -999 15
2005-10-04 07:17:26 51°19.988 2°52.799 11.5 11.8 359 15
2005-10-04 07:17:31 51°20.004 2°52.798 10.8 11.8 358 15
2005-10-04 07:17:36 51°20.021 2°52.798 10.6 11.7 359 15
2005-10-04 07:17:40 51°20.034 2°52.798 11.2 11.7 359 15
2005-10-04 07:17:46 51°20.053 2°52.797 11.8 11.8 -999 15
2005-10-04 07:17:51 51°20.069 2°52.797 11.6 11.7 359 15
2005-10-04 07:17:56 51°20.086 2°52.796 10.8 11.8 358 15
2005-10-04 07:18:00 51°20.099 2°52.795 10.5 11.8 358 15.1
2005-10-04 07:18:06 51°20.118 2°52.794 10.2 11.8 358 15
2005-10-04 07:18:11 51°20.134 2°52.793 10.3 11.8 358 15.1
2005-10-04 07:18:16 51°20.151 2°52.793 10.6 11.7 359 15.1
2005-10-04 07:18:20 51°20.164 2°52.792 10.8 11.8 359 15.1
2005-10-04 07:18:26 51°20.183 2°52.792 11.2 11.8 359 15
2005-10-04 07:18:31 51°20.2 2°52.791 11.4 11.7 359 15
2005-10-04 07:18:36 51°20.216 2°52.791 11.4 11.7 359 15.1
2005-10-04 07:18:40 51°20.229 2°52.79 11 11.7 358 15.2
2005-10-04 07:18:46 51°20.248 2°52.79 10.8 11.7 359 15.1
2005-10-04 07:18:51 51°20.265 2°52.789 10.8 11.8 359 15.1
2005-10-04 07:18:56 51°20.281 2°52.788 10.9 11.7 358 15.2
2005-10-04 07:19:00 51°20.294 2°52.787 10.6 11.8 358 15.1
2005-10-04 07:19:06 51°20.314 2°52.786 10.1 11.7 358 15.2
2005-10-04 07:19:11 51°20.33 2°52.785 9.7 11.8 358 15.3
2005-10-04 07:19:16 51°20.346 2°52.784 9.8 11.7 358 15.2
2005-10-04 07:19:20 51°20.359 2°52.783 9.9 11.7 358 15.2
2005-10-04 07:19:26 51°20.378 2°52.782 10.3 11.7 358 15.2
2005-10-04 07:19:31 51°20.395 2°52.781 10.4 11.8 358 15.1
2005-10-04 07:19:36 51°20.411 2°52.78 10.5 11.8 358 15.1
2005-10-04 07:19:40 51°20.424 2°52.779 10.5 11.7 358 15.1
2005-10-04 07:19:46 51°20.444 2°52.779 10.8 11.7 359 15.1
2005-10-04 07:19:51 51°20.46 2°52.779 11.2 11.8 -999 15.1
2005-10-04 07:19:56 51°20.476 2°52.779 11.6 11.8 -999 15.1
2005-10-04 07:20:00 51°20.489 2°52.779 12.3 11.7 1 15
2005-10-04 07:20:06 51°20.508 2°52.78 12.9 11.7 1 15.1
2005-10-04 07:20:11 51°20.525 2°52.78 13.2 11.7 -999 15.1
2005-10-04 07:20:16 51°20.541 2°52.779 12.4 11.7 359 15.1
2005-10-04 07:20:20 51°20.554 2°52.779 11.3 11.8 359 15.2
2005-10-04 07:20:26 51°20.574 2°52.778 10.6 11.8 358 15.1
2005-10-04 07:20:31 51°20.59 2°52.777 10.5 11.8 358 15.2
2005-10-04 07:20:36 51°20.607 2°52.777 10.5 11.8 358 15.1
2005-10-04 07:20:40 51°20.619 2°52.777 10.9 11.8 -999 15.1
2005-10-04 07:20:46 51°20.639 2°52.778 12 11.8 1 15
2005-10-04 07:20:51 51°20.655 2°52.779 12.6 11.8 1 15
2005-10-04 07:20:56 51°20.672 2°52.779 13.7 11.7 3 15
2005-10-04 07:21:00 51°20.685 2°52.78 13.7 11.7 1 14.7
2005-10-04 07:21:06 51°20.704 2°52.779 12.7 11.7 -999 14.8
2005-10-04 07:21:11 51°20.721 2°52.778 10.7 11.7 -999 14.7
2005-10-04 07:21:16 51°20.737 2°52.778 9.6 11.8 358 14.6
2005-10-04 07:21:20 51°20.75 2°52.779 11 11.7 1 14.4
2005-10-04 07:21:26 51°20.769 2°52.782 14 11.6 5 14.4
2005-10-04 07:21:31 51°20.784 2°52.786 17.4 11.4 9 14.2
2005-10-04 07:21:36 51°20.8 2°52.791 19.4 11.4 9 14.2
2005-10-04 07:21:40 51°20.812 2°52.794 21.4 11.4 10 14.2
2005-10-04 07:21:46 51°20.831 2°52.799 21.3 11.4 10 13.3
2005-10-04 07:21:51 51°20.847 2°52.802 19.5 11.4 8 13.5
2005-10-04 07:21:56 51°20.862 2°52.807 18.8 11.5 8 13.2
2005-10-04 07:22:00 51°20.875 2°52.812 20.9 11.4 12 13.8
2005-10-04 07:22:06 51°20.893 2°52.82 24.4 11.3 16 14.1
2005-10-04 07:22:11 51°20.907 2°52.828 26.8 11.3 18 14.2
2005-10-04 07:22:16 51°20.922 2°52.837 28.2 11.3 20 14.2
2005-10-04 07:22:20 51°20.933 2°52.845 30.3 11.2 22 14.2
2005-10-04 07:22:26 51°20.951 2°52.856 31.4 11.3 22 14.3
2005-10-04 07:22:31 51°20.965 2°52.866 31.4 11.3 22 14.1
2005-10-04 07:22:36 51°20.98 2°52.874 31.4 11.3 21 14
2005-10-04 07:22:40 51°20.991 2°52.882 30.5 11.3 21 14
2005-10-04 07:22:46 51°21.009 2°52.893 30.6 11.4 21 13.9
2005-10-04 07:22:51 51°21.023 2°52.902 30.6 11.3 22 14
2005-10-04 07:22:56 51°21.038 2°52.911 31.3 11.2 22 14
2005-10-04 07:23:00 51°21.049 2°52.919 30.9 11.3 21 13.9
2005-10-04 07:23:06 51°21.067 2°52.929 30.8 11.3 21 14
2005-10-04 07:23:11 51°21.082 2°52.939 30.8 11.3 21 13.9
2005-10-04 07:23:16 51°21.096 2°52.948 31.3 11.2 22 14
2005-10-04 07:23:20 51°21.108 2°52.955 31.7 11.2 22 14.1
2005-10-04 07:23:26 51°21.125 2°52.966 31.4 11.3 20 14
2005-10-04 07:23:31 51°21.14 2°52.974 30.3 11.3 20 13.9
2005-10-04 07:23:36 51°21.155 2°52.983 30 11.2 20 14
2005-10-04 07:23:41 51°21.169 2°52.992 30.1 11.3 20 14.1
2005-10-04 07:23:46 51°21.184 2°53.001 30.6 11.3 21 14.1
2005-10-04 07:23:51 51°21.198 2°53.01 31.1 11.3 21 14.1
2005-10-04 07:23:56 51°21.213 2°53.019 31.6 11.3 22 14.3
2005-10-04 07:24:00 51°21.225 2°53.026 31.6 11.3 21 14.2
2005-10-04 07:24:06 51°21.242 2°53.037 30.7 11.3 21 14
2005-10-04 07:24:11 51°21.257 2°53.046 30.6 11.3 21 14.3
2005-10-04 07:24:16 51°21.271 2°53.055 30.7 11.3 21 14.3
2005-10-04 07:24:21 51°21.286 2°53.064 31.2 11.3 22 14.4
2005-10-04 07:24:26 51°21.301 2°53.073 31.3 11.3 21 14.2
2005-10-04 07:24:31 51°21.315 2°53.082 31.5 11.3 22 14.5
2005-10-04 07:24:36 51°21.33 2°53.091 31.4 11.3 21 14.5
2005-10-04 07:24:41 51°21.344 2°53.1 31.1 11.3 21 14.5
2005-10-04 07:24:46 51°21.359 2°53.109 31.2 11.3 21 14.6
2005-10-04 07:24:51 51°21.373 2°53.119 31.5 11.3 23 14.6
2005-10-04 07:24:56 51°21.388 2°53.128 31.9 11.3 22 14.6
2005-10-04 07:25:01 51°21.402 2°53.138 32.2 11.4 23 14.6
2005-10-04 07:25:06 51°21.417 2°53.148 32.6 11.4 23 14.7
2005-10-04 07:25:11 51°21.432 2°53.156 32.4 11.4 21 14.7
2005-10-04 07:25:16 51°21.447 2°53.165 31.2 11.4 20 14.8
2005-10-04 07:25:21 51°21.462 2°53.172 29.7 11.4 19 14.8
2005-10-04 07:25:26 51°21.477 2°53.18 29.1 11.4 19 15
2005-10-04 07:25:31 51°21.491 2°53.188 28.5 11.3 19 15
2005-10-04 07:25:36 51°21.506 2°53.196 28.8 11.3 18 15.1
2005-10-04 07:25:40 51°21.518 2°53.203 29.8 11.3 20 15.2
2005-10-04 07:25:46 51°21.536 2°53.214 30.3 11.3 20 15.5
2005-10-04 07:25:51 51°21.55 2°53.223 30.7 11.3 21 15.5
2005-10-04 07:25:56 51°21.565 2°53.232 31.4 11.3 21 15.6
2005-10-04 07:26:00 51°21.577 2°53.24 31.3 11.4 22 15.8
2005-10-04 07:26:06 51°21.594 2°53.251 31.7 11.4 22 15.8
2005-10-04 07:26:11 51°21.609 2°53.26 31.7 11.3 22 15.8
2005-10-04 07:26:16 51°21.623 2°53.27 31.8 11.3 22 15.9
2005-10-04 07:26:20 51°21.635 2°53.277 32.2 11.3 22 16
2005-10-04 07:26:26 51°21.653 2°53.287 31.9 11.4 21 16.2
2005-10-04 07:26:31 51°21.668 2°53.296 31 11.4 21 16.1
2005-10-04 07:26:36 51°21.683 2°53.305 30.4 11.3 20 16.2
2005-10-04 07:26:41 51°21.697 2°53.313 30.4 11.4 20 16.4
2005-10-04 07:26:46 51°21.712 2°53.321 30.2 11.4 20 16.4
2005-10-04 07:26:51 51°21.727 2°53.329 29.8 11.4 19 16.6
2005-10-04 07:26:56 51°21.742 2°53.337 29.7 11.4 18 16.6
2005-10-04 07:27:00 51°21.754 2°53.344 29.3 11.4 19 16.8
2005-10-04 07:27:06 51°21.772 2°53.354 29.5 11.4 19 16.9
2005-10-04 07:27:11 51°21.787 2°53.362 29.7 11.4 19 17.2
2005-10-04 07:27:16 51°21.802 2°53.37 29.7 11.4 19 17.3
2005-10-04 07:27:20 51°21.814 2°53.377 30 11.4 20 17.5
2005-10-04 07:27:26 51°21.831 2°53.388 30.4 11.4 19 17.6
2005-10-04 07:27:31 51°21.846 2°53.396 30.2 11.4 19 17.7
2005-10-04 07:27:36 51°21.861 2°53.404 29.9 11.5 20 17.9
2005-10-04 07:27:40 51°21.873 2°53.411 30.1 11.5 19 18
2005-10-04 07:27:46 51°21.891 2°53.422 30.5 11.5 21 18
2005-10-04 07:27:51 51°21.906 2°53.431 30.9 11.5 20 18.1
2005-10-04 07:27:56 51°21.921 2°53.44 30.7 11.5 20 18.1
2005-10-04 07:28:00 51°21.933 2°53.447 30.8 11.5 20 18.3
2005-10-04 07:28:06 51°21.951 2°53.458 31.2 11.4 22 18.5
2005-10-04 07:28:11 51°21.966 2°53.467 30.9 11.5 20 18.5
2005-10-04 07:28:16 51°21.981 2°53.476 30.7 11.5 21 18.5
2005-10-04 07:28:21 51°21.993 2°53.483 31.1 11.5 20 18.4
2005-10-04 07:28:27 51°22.011 2°53.493 30.3 11.5 19 18.5
2005-10-04 07:28:32 51°22.026 2°53.502 29.8 11.4 19 18.4
2005-10-04 07:28:37 51°22.041 2°53.51 29.8 11.5 19 18.5
2005-10-04 07:28:41 51°22.053 2°53.518 30.3 11.5 19 18.6
2005-10-04 07:28:47 51°22.071 2°53.528 30.9 11.4 20 18.9
2005-10-04 07:28:52 51°22.085 2°53.537 30.7 11.4 21 18.9
2005-10-04 07:28:57 51°22.1 2°53.547 31.7 11.4 22 19
2005-10-04 07:29:01 51°22.112 2°53.554 32 11.4 22 19.2
2005-10-04 07:29:05 51°22.123 2°53.562 32.1 11.5 22 19.3
2005-10-04 07:29:12 51°22.144 2°53.575 32 11.5 22 19.4
2005-10-04 07:29:17 51°22.158 2°53.585 32.1 11.4 23 19.4
2005-10-04 07:29:21 51°22.17 2°53.592 32.6 11.4 22 19.6
2005-10-04 07:29:27 51°22.188 2°53.604 32.5 11.4 22 19.5
2005-10-04 07:29:32 51°22.202 2°53.613 32 11.5 22 19.6
2005-10-04 07:29:37 51°22.217 2°53.622 31.9 11.3 23 19.9
2005-10-04 07:29:41 51°22.228 2°53.63 32.6 11.4 22 19.9
2005-10-04 07:29:47 51°22.246 2°53.64 32.1 11.4 20 20
2005-10-04 07:29:52 51°22.261 2°53.649 31.1 11.4 20 20.1
2005-10-04 07:29:57 51°22.276 2°53.658 30.4 11.4 21 20.3
2005-10-04 07:30:01 51°22.288 2°53.666 31 11.4 22 20.4
2005-10-04 07:30:07 51°22.305 2°53.678 31.8 11.5 22 20.5
2005-10-04 07:30:12 51°22.319 2°53.689 32.7 11.4 24 20.6
2005-10-04 07:30:17 51°22.332 2°53.7 35.1 11.2 27 20.7
2005-10-04 07:30:21 51°22.343 2°53.71 36.9 11.1 29 20.8
2005-10-04 07:30:27 51°22.359 2°53.725 38.3 11.2 29 20.9
2005-10-04 07:30:32 51°22.372 2°53.739 39.1 11.1 33 21
2005-10-04 07:30:37 51°22.385 2°53.752 41 11.2 33 20.9
2005-10-04 07:30:41 51°22.395 2°53.763 41.6 11.1 33 20.8
2005-10-04 07:30:47 51°22.411 2°53.779 42 11.1 33 20.9
2005-10-04 07:30:52 51°22.424 2°53.793 42 11.1 32 20.9
2005-10-04 07:30:57 51°22.437 2°53.806 41.6 11.2 33 21.1
2005-10-04 07:31:01 51°22.448 2°53.816 41.3 11.2 32 21.5
2005-10-04 07:31:07 51°22.463 2°53.832 41.2 11.1 33 21.5
2005-10-04 07:31:12 51°22.476 2°53.845 41.3 11.1 33 21.3
2005-10-04 07:31:17 51°22.489 2°53.858 41.1 11.1 32 21.4
2005-10-04 07:31:21 51°22.5 2°53.869 40.6 11.1 32 21.5
2005-10-04 07:31:27 51°22.516 2°53.885 40.4 11.2 32 21.4
2005-10-04 07:31:32 51°22.529 2°53.898 40.6 11.1 32 21.7
2005-10-04 07:31:37 51°22.541 2°53.911 41 11.1 33 21.7
2005-10-04 07:31:41 51°22.552 2°53.923 41.3 11.1 34 21.7
2005-10-04 07:31:47 51°22.567 2°53.94 42.4 11 36 21.9
2005-10-04 07:31:52 51°22.579 2°53.954 43.7 11.1 36 21.8
2005-10-04 07:31:57 51°22.592 2°53.968 43.5 11.1 34 21.9
2005-10-04 07:32:01 51°22.602 2°53.979 42.8 11 34 21.8
2005-10-04 07:32:07 51°22.618 2°53.994 42 11.1 34 21.9
2005-10-04 07:32:12 51°22.631 2°54.007 40.7 11.1 32 21.8
2005-10-04 07:32:17 51°22.644 2°54.02 40.2 11.1 32 21.9
2005-10-04 07:32:21 51°22.655 2°54.03 40 11.2 32 21.7
2005-10-04 07:32:27 51°22.67 2°54.045 39.9 11.1 31 21.9
2005-10-04 07:32:31 51°22.681 2°54.056 39.5 11.2 32 21.9
2005-10-04 07:32:37 51°22.697 2°54.072 40 11.3 32 21.6
2005-10-04 07:32:42 51°22.71 2°54.086 40.5 11.3 33 21.8
2005-10-04 07:32:47 51°22.723 2°54.1 41.2 11.2 34 21.5
2005-10-04 07:32:52 51°22.736 2°54.113 41.7 11.3 34 21.6
2005-10-04 07:32:57 51°22.749 2°54.126 40.8 11.3 32 21.7
2005-10-04 07:33:01 51°22.76 2°54.137 40.2 11.3 33 21.6
2005-10-04 07:33:07 51°22.776 2°54.154 40.1 11.3 33 21.5
2005-10-04 07:33:12 51°22.789 2°54.168 40.3 11.4 34 21.4
2005-10-04 07:33:17 51°22.802 2°54.183 41 11.4 35 21.4
2005-10-04 07:33:21 51°22.812 2°54.195 42 11.5 36 21.4
2005-10-04 07:33:27 51°22.828 2°54.212 42.9 11.5 35 21.3
2005-10-04 07:33:32 51°22.841 2°54.227 42 11.5 35 20.6
2005-10-04 07:33:37 51°22.854 2°54.242 41.7 11.5 34 19.1
2005-10-04 07:33:41 51°22.864 2°54.254 41 11.5 35 19.3
2005-10-04 07:33:47 51°22.88 2°54.271 41.3 11.5 36 20.5
2005-10-04 07:33:52 51°22.893 2°54.286 41.4 11.5 36 20.1
2005-10-04 07:33:57 51°22.906 2°54.3 42 11.5 34 19.9
2005-10-04 07:34:01 51°22.916 2°54.312 41.3 11.6 35 19.9
2005-10-04 07:34:07 51°22.932 2°54.329 40.9 11.6 33 20.1
2005-10-04 07:34:12 51°22.946 2°54.344 40.6 11.6 34 19.8
2005-10-04 07:34:17 51°22.959 2°54.359 40.7 11.6 34 19.9
2005-10-04 07:34:21 51°22.97 2°54.37 40.8 11.6 34 20.1
2005-10-04 07:34:27 51°22.986 2°54.388 40.5 11.7 35 20
2005-10-04 07:34:32 51°22.999 2°54.402 41 11.7 34 20.2
2005-10-04 07:34:37 51°23.013 2°54.417 41.1 11.7 34 20
2005-10-04 07:34:41 51°23.023 2°54.428 40.9 11.6 34 19.8
2005-10-04 07:34:47 51°23.039 2°54.445 40.6 11.6 33 19.7
2005-10-04 07:34:52 51°23.052 2°54.459 40.7 11.6 33 19.2
2005-10-04 07:34:57 51°23.066 2°54.474 41.1 11.5 34 19.4
2005-10-04 07:35:01 51°23.076 2°54.486 41.5 11.5 35 19.2
2005-10-04 07:35:07 51°23.092 2°54.503 41.6 11.5 34 18.8
2005-10-04 07:35:12 51°23.105 2°54.517 41.4 11.5 34 18.9
2005-10-04 07:35:17 51°23.118 2°54.531 41.2 11.4 33 18.7
2005-10-04 07:35:22 51°23.131 2°54.546 40.7 11.3 34 19.2
2005-10-04 07:35:27 51°23.144 2°54.559 40.8 11.4 34 18.4
2005-10-04 07:35:32 51°23.157 2°54.573 40.7 11.3 34 16.6
2005-10-04 07:35:37 51°23.17 2°54.588 41 11.3 35 17.5
2005-10-04 07:35:41 51°23.18 2°54.6 41.4 11.3 36 17.5
2005-10-04 07:35:47 51°23.195 2°54.617 42.4 11.2 36 19.1
2005-10-04 07:35:52 51°23.208 2°54.632 42.8 11.3 36 18.8
2005-10-04 07:35:57 51°23.22 2°54.647 42.9 11.3 36 18.1
2005-10-04 07:36:01 51°23.23 2°54.659 43.1 11.3 37 16.4
2005-10-04 07:36:07 51°23.245 2°54.677 43.2 11.2 37 17.9
2005-10-04 07:36:12 51°23.258 2°54.691 42.9 11.2 35 19
2005-10-04 07:36:17 51°23.271 2°54.705 41.7 11.3 34 18.8
2005-10-04 07:36:21 51°23.281 2°54.716 40.8 11.2 34 16.7
2005-10-04 07:36:27 51°23.297 2°54.732 39.9 11.2 34 18.1
2005-10-04 07:36:32 51°23.31 2°54.746 40.2 11.2 34 16.3
2005-10-04 07:36:37 51°23.323 2°54.761 40.6 11.2 34 18.4
2005-10-04 07:36:41 51°23.334 2°54.772 40.8 11.2 34 18
2005-10-04 07:36:45 51°23.344 2°54.783 40.7 11.3 34 17.6
2005-10-04 07:36:52 51°23.362 2°54.801 40.4 11.3 33 18.6
2005-10-04 07:36:57 51°23.375 2°54.815 39.9 11.2 32 16.5
2005-10-04 07:37:01 51°23.386 2°54.825 39.1 11.3 32 18.6
2005-10-04 07:37:07 51°23.401 2°54.842 39.1 11.2 33 18.1
2005-10-04 07:37:12 51°23.414 2°54.855 39.4 11.2 33 17.4
2005-10-04 07:37:17 51°23.427 2°54.869 40 11.2 34 18.5
2005-10-04 07:37:21 51°23.437 2°54.881 40.6 11.2 35 17
2005-10-04 07:37:27 51°23.452 2°54.897 41.1 11.1 35 18.8
2005-10-04 07:37:32 51°23.465 2°54.912 42 11.1 36 18.2
2005-10-04 07:37:37 51°23.478 2°54.926 42.2 11.2 34 17.2
2005-10-04 07:37:41 51°23.488 2°54.937 41.8 11 35 18.1
2005-10-04 07:37:47 51°23.503 2°54.954 41.2 11.2 33 16.9
2005-10-04 07:37:52 51°23.516 2°54.968 41 11.2 34 18.1
2005-10-04 07:37:57 51°23.529 2°54.981 41 11.1 33 19
2005-10-04 07:38:01 51°23.539 2°54.993 40.8 11.2 35 18.8
2005-10-04 07:38:07 51°23.554 2°55.009 41.2 11.1 34 16.1
2005-10-04 07:38:12 51°23.567 2°55.023 41.1 11.2 35 17.5
2005-10-04 07:38:17 51°23.58 2°55.037 41.3 11.1 34 18.9
2005-10-04 07:38:21 51°23.59 2°55.049 41.3 11.2 34 19.1
2005-10-04 07:38:25 51°23.6 2°55.06 41.2 11.2 35 18.3
2005-10-04 07:38:32 51°23.618 2°55.08 41.4 11.1 35 18.3
2005-10-04 07:38:37 51°23.631 2°55.093 41 11.1 33 19.3
2005-10-04 07:38:41 51°23.641 2°55.104 40.9 11.1 33 18.6
2005-10-04 07:38:47 51°23.657 2°55.12 40.6 11.1 34 18.1
2005-10-04 07:38:52 51°23.67 2°55.134 40.6 11.1 33 19.3
2005-10-04 07:38:57 51°23.683 2°55.147 40.4 11.2 32 19
2005-10-04 07:39:01 51°23.693 2°55.158 40.2 11.1 32 17.7
2005-10-04 07:39:07 51°23.709 2°55.174 40.1 11.2 33 19.1
2005-10-04 07:39:12 51°23.722 2°55.187 40.1 11.2 33 18.8
2005-10-04 07:39:17 51°23.734 2°55.202 40.8 11.2 35 17.7
2005-10-04 07:39:21 51°23.745 2°55.212 41.3 11.1 34 19.2
2005-10-04 07:39:27 51°23.76 2°55.229 41.7 11.1 35 18.9
2005-10-04 07:39:32 51°23.773 2°55.243 41.9 11.2 34 19
2005-10-04 07:39:37 51°23.785 2°55.257 42 11.1 35 19.3
2005-10-04 07:39:41 51°23.796 2°55.268 42.2 11.1 34 19.4
2005-10-04 07:39:47 51°23.811 2°55.285 41.8 11.1 33 17.8
2005-10-04 07:39:52 51°23.824 2°55.298 41.1 11.1 33 19.1
2005-10-04 07:39:57 51°23.837 2°55.311 40.7 11.1 33 19.3
2005-10-04 07:40:01 51°23.847 2°55.322 40.5 11.1 32 18.3
2005-10-04 07:40:07 51°23.863 2°55.338 40.6 11.1 33 19.6
2005-10-04 07:40:12 51°23.876 2°55.351 41.1 11.1 33 19.7
2005-10-04 07:40:17 51°23.888 2°55.365 41.3 11.1 33 19.6
2005-10-04 07:40:21 51°23.899 2°55.375 40.9 11.1 32 19.8
2005-10-04 07:40:27 51°23.915 2°55.391 40.2 11.1 32 20
2005-10-04 07:40:32 51°23.928 2°55.404 40.2 11.1 31 20
2005-10-04 07:40:37 51°23.941 2°55.417 40.1 11.1 32 19.7
2005-10-04 07:40:41 51°23.951 2°55.427 40.2 11.1 32 19.6
2005-10-04 07:40:47 51°23.967 2°55.443 40.6 11.1 33 19.9
2005-10-04 07:40:52 51°23.979 2°55.458 41.3 11.1 36 19.7
2005-10-04 07:40:57 51°23.99 2°55.474 43.1 11.1 38 20
2005-10-04 07:41:01 51°23.999 2°55.487 47 11 42 20.1
2005-10-04 07:41:07 51°24.011 2°55.509 50 11 42 20.2
2005-10-04 07:41:12 51°24.02 2°55.529 53.8 10.9 53 20.3
2005-10-04 07:41:17 51°24.027 2°55.55 58.4 10.9 58 20.5
2005-10-04 07:41:22 51°24.034 2°55.571 62.2 10.9 62 20.5
2005-10-04 07:41:27 51°24.041 2°55.592 64.1 10.9 62 20.7
2005-10-04 07:41:31 51°24.046 2°55.61 65.9 10.9 64 20.5
2005-10-04 07:41:37 51°24.055 2°55.636 67 11 63 20.4
2005-10-04 07:41:42 51°24.062 2°55.657 66 11 63 20.6
2005-10-04 07:41:47 51°24.068 2°55.679 65.4 11 62 20.6
2005-10-04 07:41:52 51°24.075 2°55.701 65.6 10.9 63 20.4
2005-10-04 07:41:57 51°24.082 2°55.722 66 11 64 20.3
2005-10-04 07:42:01 51°24.088 2°55.74 66.7 11.1 64 20.4
2005-10-04 07:42:07 51°24.096 2°55.766 66 11 62 20.2
2005-10-04 07:42:12 51°24.104 2°55.788 65.8 11.1 63 20.3
2005-10-04 07:42:17 51°24.11 2°55.81 65.8 11.1 63 20.3
2005-10-04 07:42:21 51°24.116 2°55.827 66 11.1 63 20.4
2005-10-04 07:42:27 51°24.124 2°55.854 66.3 11 64 20.3
2005-10-04 07:42:32 51°24.131 2°55.876 66.8 11.1 65 20.4
2005-10-04 07:42:37 51°24.138 2°55.897 66.9 11.1 63 20.5
2005-10-04 07:42:41 51°24.143 2°55.915 66 11.1 62 20.7
2005-10-04 07:42:47 51°24.152 2°55.941 65.3 11.1 62 20.4
2005-10-04 07:42:52 51°24.159 2°55.962 65.2 11.1 61 20.3
2005-10-04 07:42:57 51°24.167 2°55.984 64.9 11.1 61 20.4
2005-10-04 07:43:01 51°24.172 2°56.001 65 11.1 62 20.3
2005-10-04 07:43:07 51°24.181 2°56.028 65.2 11.2 62 20.1
2005-10-04 07:43:12 51°24.188 2°56.05 65.5 11.1 63 20
2005-10-04 07:43:17 51°24.195 2°56.071 66.3 11.1 63 19.9
2005-10-04 07:43:21 51°24.2 2°56.089 66.2 11 63 19.8
2005-10-04 07:43:27 51°24.209 2°56.115 66 11.1 62 19.8
2005-10-04 07:43:32 51°24.216 2°56.136 65.2 11.1 62 19.9
2005-10-04 07:43:37 51°24.224 2°56.159 65 11.1 62 20
2005-10-04 07:43:41 51°24.23 2°56.176 65.6 11.1 63 20.1
2005-10-04 07:43:45 51°24.235 2°56.194 66 11.1 64 19.9
2005-10-04 07:43:52 51°24.245 2°56.225 66.3 11.1 65 19.8
2005-10-04 07:43:57 51°24.251 2°56.247 66.5 11.1 65 19.8
2005-10-04 07:44:01 51°24.256 2°56.266 68.1 11.2 68 19.4
2005-10-04 07:44:07 51°24.262 2°56.294 69.6 11.1 69 18.4
2005-10-04 07:44:12 51°24.267 2°56.317 70.9 11.1 70 17.7
2005-10-04 07:44:17 51°24.273 2°56.34 71.1 11.1 70 19.3
2005-10-04 07:44:21 51°24.277 2°56.359 71.7 11.2 71 19.5
2005-10-04 07:44:27 51°24.283 2°56.387 72 11.3 71 19.2
2005-10-04 07:44:32 51°24.288 2°56.411 72.5 11.2 72 18.3
2005-10-04 07:44:37 51°24.293 2°56.434 72.6 11.2 70 16
2005-10-04 07:44:41 51°24.297 2°56.452 71.5 11.1 69 18.6
2005-10-04 07:44:47 51°24.304 2°56.479 70.9 11.2 69 19
2005-10-04 07:44:52 51°24.31 2°56.503 70.1 11.2 67 18.3
2005-10-04 07:44:57 51°24.316 2°56.526 69.3 11.2 69 16.8
2005-10-04 07:45:01 51°24.32 2°56.544 69.9 11.1 68 16.9
2005-10-04 07:45:07 51°24.327 2°56.572 70.1 11.2 70 18.4
2005-10-04 07:45:12 51°24.332 2°56.596 70.8 11.3 69 18.2
2005-10-04 07:45:17 51°24.338 2°56.619 71 11.3 70 17.5
2005-10-04 07:45:21 51°24.342 2°56.638 71.5 11.3 69 16.2
2005-10-04 07:45:27 51°24.348 2°56.666 71.1 11.3 71 15.1
2005-10-04 07:45:32 51°24.354 2°56.689 71.1 11.3 70 15.9
2005-10-04 07:45:37 51°24.36 2°56.713 70.7 11.2 70 17.5
2005-10-04 07:45:42 51°24.365 2°56.736 70.9 11.3 69 17.2
2005-10-04 07:45:47 51°24.371 2°56.759 71 11.4 69 16.1
2005-10-04 07:45:52 51°24.377 2°56.783 70.5 11.3 68 15
2005-10-04 07:45:57 51°24.383 2°56.805 69.7 11.2 67 16.2
2005-10-04 07:46:01 51°24.387 2°56.824 69.3 11.3 68 17.1
2005-10-04 07:46:07 51°24.394 2°56.853 69.1 11.4 69 16.6
2005-10-04 07:46:12 51°24.4 2°56.875 70.3 11.3 70 15.7
2005-10-04 07:46:17 51°24.406 2°56.899 70.3 11.2 69 16
2005-10-04 07:46:21 51°24.41 2°56.917 70 11.3 69 16.6
2005-10-04 07:46:27 51°24.417 2°56.945 69.9 11.3 69 17
2005-10-04 07:46:32 51°24.423 2°56.969 70.3 11.4 68 17.3
2005-10-04 07:46:37 51°24.428 2°56.992 70.3 11.3 68 16.9
2005-10-04 07:46:41 51°24.433 2°57.011 69.6 11.3 67 15.8
2005-10-04 07:46:47 51°24.44 2°57.038 68.9 11.2 67 15.3
2005-10-04 07:46:52 51°24.446 2°57.061 68.9 11.2 67 16.3
2005-10-04 07:46:57 51°24.452 2°57.084 69.6 11.2 69 16.9
2005-10-04 07:47:01 51°24.456 2°57.103 70.3 11.3 69 16.9
2005-10-04 07:47:07 51°24.464 2°57.13 70 11.3 68 17.2
2005-10-04 07:47:12 51°24.47 2°57.153 69.6 11.2 68 16.9
2005-10-04 07:47:17 51°24.476 2°57.176 68.6 11.1 64 16.2
2005-10-04 07:47:21 51°24.482 2°57.193 66.3 11.2 63 15.5
2005-10-04 07:47:27 51°24.491 2°57.219 64.7 11.1 60 16.2
2005-10-04 07:47:32 51°24.5 2°57.239 62.7 11.1 58 16.8
2005-10-04 07:47:37 51°24.509 2°57.259 60.5 11 54 16.9
2005-10-04 07:47:41 51°24.517 2°57.274 57.5 11 52 17.2
2005-10-04 07:47:47 51°24.529 2°57.296 55.5 11.1 49 17.5
2005-10-04 07:47:52 51°24.538 2°57.316 54.3 11.1 51 17.5
2005-10-04 07:47:57 51°24.548 2°57.336 55.2 11.2 53 17.6
2005-10-04 07:48:01 51°24.555 2°57.352 56.6 11.2 53 17.7
2005-10-04 07:48:05 51°24.561 2°57.369 58.9 11.1 58 17.3
2005-10-04 07:48:11 51°24.571 2°57.395 60.6 11.2 59 16.1
2005-10-04 07:48:17 51°24.581 2°57.419 60.9 11.1 56 16.3
2005-10-04 07:48:21 51°24.588 2°57.436 60 11.1 57 16.8
2005-10-04 07:48:27 51°24.598 2°57.461 60 11.2 58 17.4
2005-10-04 07:48:32 51°24.606 2°57.483 60.5 11.2 58 17.8
2005-10-04 07:48:37 51°24.614 2°57.504 61.1 11.2 59 18
2005-10-04 07:48:41 51°24.62 2°57.522 62.3 11.2 60 17.9
2005-10-04 07:48:47 51°24.63 2°57.546 61.8 11.2 57 18.1
2005-10-04 07:48:52 51°24.638 2°57.567 60.7 11.2 57 18
2005-10-04 07:48:57 51°24.647 2°57.589 60.4 11.2 58 17.9
2005-10-04 07:49:01 51°24.653 2°57.606 60.1 11.2 59 18
2005-10-04 07:49:07 51°24.663 2°57.631 60.2 11.2 58 17.8
2005-10-04 07:49:12 51°24.672 2°57.652 60.4 11.3 56 18
2005-10-04 07:49:17 51°24.68 2°57.673 59.7 11.2 57 18
2005-10-04 07:49:21 51°24.687 2°57.69 59.5 11.2 57 18.1
2005-10-04 07:49:27 51°24.697 2°57.715 59.5 11.2 56 18.2
2005-10-04 07:49:32 51°24.706 2°57.736 59.6 11.3 58 18.3
2005-10-04 07:49:37 51°24.714 2°57.758 60.3 11.3 58 18.4
2005-10-04 07:49:41 51°24.721 2°57.775 61.1 11.3 59 18.5
2005-10-04 07:49:45 51°24.727 2°57.792 61.5 11.3 58 18.5
2005-10-04 07:49:52 51°24.739 2°57.822 61.4 11.3 58 18.6
2005-10-04 07:49:57 51°24.747 2°57.843 60.8 11.3 57 18.3
2005-10-04 07:50:01 51°24.754 2°57.861 60.4 11.3 58 18.6
2005-10-04 07:50:07 51°24.764 2°57.886 60.3 11.3 58 18.4
2005-10-04 07:50:12 51°24.772 2°57.908 60.6 11.3 59 18.4
2005-10-04 07:50:17 51°24.781 2°57.928 60.9 11.2 56 18.6
2005-10-04 07:50:21 51°24.788 2°57.944 59.6 11.3 56 18.7
2005-10-04 07:50:27 51°24.8 2°57.968 58 11.3 52 18.6
2005-10-04 07:50:32 51°24.81 2°57.987 55.9 11.3 52 18.5
2005-10-04 07:50:37 51°24.821 2°58.006 54.3 11.3 49 18.7
2005-10-04 07:50:41 51°24.829 2°58.021 53.3 11.3 48 18.6
2005-10-04 07:50:47 51°24.842 2°58.041 51.6 11.2 44 18.5
2005-10-04 07:50:52 51°24.854 2°58.057 49.2 11.2 40 18.5
2005-10-04 07:50:57 51°24.866 2°58.072 46.4 11.2 38 18.8
2005-10-04 07:51:01 51°24.877 2°58.083 43.8 11.1 37 19
2005-10-04 07:51:07 51°24.891 2°58.1 41.3 11.2 34 18.8
2005-10-04 07:51:12 51°24.904 2°58.114 39.8 11.2 32 18.7
2005-10-04 07:51:17 51°24.917 2°58.127 39 11.2 33 19.1
2005-10-04 07:51:21 51°24.928 2°58.137 39 11.2 33 19
2005-10-04 07:51:27 51°24.943 2°58.154 39 11.3 33 19.2
2005-10-04 07:51:32 51°24.956 2°58.168 39.1 11.3 35 19.1
2005-10-04 07:51:37 51°24.969 2°58.183 40.7 11.1 36 19.1
2005-10-04 07:51:41 51°24.979 2°58.195 41.8 11.1 37 19.1
2005-10-04 07:51:47 51°24.994 2°58.212 42.3 11.2 37 19.3
2005-10-04 07:51:52 51°25.006 2°58.227 42.5 11.2 36 19.2
2005-10-04 07:51:57 51°25.019 2°58.24 40.9 11.2 34 19.4
2005-10-04 07:52:01 51°25.03 2°58.251 39.9 11.2 34 19.5
2005-10-04 07:52:07 51°25.045 2°58.268 39.9 11.3 34 19.7
2005-10-04 07:52:12 51°25.058 2°58.283 40.6 11.3 35 19.5
2005-10-04 07:52:17 51°25.071 2°58.297 41 11.2 36 19.5
2005-10-04 07:52:21 51°25.081 2°58.309 41.3 11.2 36 19.6
2005-10-04 07:52:27 51°25.096 2°58.327 41.8 11.2 37 19.5
2005-10-04 07:52:32 51°25.109 2°58.342 42.1 11.2 36 19.7
2005-10-04 07:52:37 51°25.121 2°58.357 42.4 11.2 37 19.6
2005-10-04 07:52:41 51°25.131 2°58.368 42.4 11.2 36 19.8
2005-10-04 07:52:47 51°25.146 2°58.385 41.9 11.1 36 19.8
2005-10-04 07:52:52 51°25.159 2°58.399 41.5 11.1 35 19.8
2005-10-04 07:52:57 51°25.172 2°58.414 40.8 11.1 36 19.9
2005-10-04 07:53:01 51°25.182 2°58.425 41.3 11.2 36 20.1
2005-10-04 07:53:07 51°25.197 2°58.443 41.2 11.2 35 20.1
2005-10-04 07:53:11 51°25.207 2°58.454 41.1 11.2 35 20.2
2005-10-04 07:53:17 51°25.222 2°58.471 41 11.1 35 20.2
2005-10-04 07:53:21 51°25.232 2°58.482 40.6 11.2 34 20.3
2005-10-04 07:53:27 51°25.247 2°58.499 40.4 11.2 34 20.5
2005-10-04 07:53:32 51°25.26 2°58.513 40.1 11.2 34 20.6
2005-10-04 07:53:37 51°25.273 2°58.527 40.4 11.2 35 20.6
2005-10-04 07:53:41 51°25.284 2°58.539 40.6 11.2 35 20.6
2005-10-04 07:53:47 51°25.299 2°58.556 40.8 11.2 35 20.6
2005-10-04 07:53:52 51°25.311 2°58.57 40.9 11.2 34 20.7
2005-10-04 07:53:57 51°25.324 2°58.584 40.5 11.3 34 20.8
2005-10-04 07:54:01 51°25.334 2°58.595 39.9 11.2 34 21
2005-10-04 07:54:07 51°25.349 2°58.611 39.9 11.2 33 20.9
2005-10-04 07:54:12 51°25.362 2°58.625 39.7 11.2 34 20.9
2005-10-04 07:54:17 51°25.375 2°58.639 39.7 11.1 34 21.1
2005-10-04 07:54:21 51°25.385 2°58.649 39.4 11.1 33 21.1
2005-10-04 07:54:27 51°25.401 2°58.666 39.8 11.2 34 21.1
2005-10-04 07:54:32 51°25.413 2°58.68 39.9 11.1 34 21.3
2005-10-04 07:54:37 51°25.426 2°58.694 40.1 11.1 35 21.4
2005-10-04 07:54:41 51°25.436 2°58.706 40.5 11.1 36 21.4
2005-10-04 07:54:47 51°25.451 2°58.723 40.9 11 36 21.3
2005-10-04 07:54:52 51°25.464 2°58.737 41.8 11 36 21.5
2005-10-04 07:54:57 51°25.476 2°58.751 41.5 10.9 34 21.6
2005-10-04 07:55:01 51°25.486 2°58.762 40.5 11 34 21.4
2005-10-04 07:55:07 51°25.501 2°58.779 40.5 11 35 21.6
2005-10-04 07:55:12 51°25.514 2°58.793 40.6 10.9 35 21.7
2005-10-04 07:55:17 51°25.526 2°58.806 41.2 11 36 21.7
2005-10-04 07:55:21 51°25.536 2°58.818 41.4 10.9 36 21.6
2005-10-04 07:55:27 51°25.551 2°58.834 41.6 10.9 35 21.9
2005-10-04 07:55:32 51°25.564 2°58.848 41.2 10.8 35 21.7
2005-10-04 07:55:37 51°25.576 2°58.862 40.9 10.8 35 21.9
2005-10-04 07:55:42 51°25.588 2°58.875 40.3 10.8 34 21.9
2005-10-04 07:55:47 51°25.601 2°58.889 40.2 10.8 34 22
2005-10-04 07:55:52 51°25.613 2°58.902 39.9 10.9 34 22
2005-10-04 07:55:57 51°25.626 2°58.916 40 10.9 34 22.1
2005-10-04 07:56:01 51°25.636 2°58.926 39.7 10.9 34 22.1
2005-10-04 07:56:07 51°25.65 2°58.943 39.9 10.9 35 22.1
2005-10-04 07:56:12 51°25.663 2°58.958 40.7 10.9 36 22
2005-10-04 07:56:17 51°25.675 2°58.972 41.3 10.9 37 22.1
2005-10-04 07:56:22 51°25.687 2°58.986 42 11 37 22.2
2005-10-04 07:56:27 51°25.7 2°59.001 41.9 11 35 22.3
2005-10-04 07:56:32 51°25.712 2°59.015 41.4 11 36 22.3
2005-10-04 07:56:37 51°25.724 2°59.029 41.3 10.9 37 22.3
2005-10-04 07:56:41 51°25.734 2°59.041 41.3 11 36 22.4
2005-10-04 07:56:47 51°25.748 2°59.058 41.5 11 36 22.4
2005-10-04 07:56:52 51°25.761 2°59.072 41.3 11 35 22.4
2005-10-04 07:56:57 51°25.773 2°59.086 40.7 10.9 35 22.4
2005-10-04 07:57:01 51°25.783 2°59.097 40.6 11 35 22.6
2005-10-04 07:57:07 51°25.798 2°59.114 40.6 11 35 22.6
2005-10-04 07:57:12 51°25.811 2°59.128 40.8 11 35 22.7
2005-10-04 07:57:17 51°25.823 2°59.142 41.1 11 36 22.8
2005-10-04 07:57:21 51°25.833 2°59.154 41.3 11 36 22.7
2005-10-04 07:57:27 51°25.847 2°59.172 42.1 10.8 38 22.9
2005-10-04 07:57:32 51°25.859 2°59.186 42.8 10.8 38 22.9
2005-10-04 07:57:37 51°25.871 2°59.2 42.6 10.8 36 22.8
2005-10-04 07:57:41 51°25.881 2°59.212 41.5 10.9 36 22.9
2005-10-04 07:57:47 51°25.896 2°59.228 40.6 10.9 35 23
2005-10-04 07:57:52 51°25.909 2°59.242 40.3 10.9 35 23
2005-10-04 07:57:57 51°25.921 2°59.256 40.1 10.9 35 23.1
2005-10-04 07:58:01 51°25.931 2°59.267 40.1 11 35 23.1
2005-10-04 07:58:07 51°25.946 2°59.283 40.1 11 34 23.2
2005-10-04 07:58:12 51°25.959 2°59.297 40.1 11 34 23.2
2005-10-04 07:58:17 51°25.972 2°59.311 40.5 11 35 23.2
2005-10-04 07:58:21 51°25.982 2°59.322 41.1 11 36 23.4
2005-10-04 07:58:27 51°25.996 2°59.34 41.3 11 36 23.2
2005-10-04 07:58:32 51°26.008 2°59.353 41.6 11 35 23.2
2005-10-04 07:58:37 51°26.021 2°59.368 41.5 11 36 23.4
2005-10-04 07:58:42 51°26.033 2°59.382 41.3 11 36 23.4
2005-10-04 07:58:47 51°26.045 2°59.395 40.8 11 36 23.6
2005-10-04 07:58:52 51°26.058 2°59.409 40.7 11 36 23.6
2005-10-04 07:58:57 51°26.071 2°59.423 40.1 11 34 23.7
2005-10-04 07:59:01 51°26.081 2°59.433 39.7 11 33 23.9
2005-10-04 07:59:07 51°26.097 2°59.449 39.1 11 32 23.9